createdAt,value
2019-05-14T00:00:22.535Z,102838.24
2019-05-14T00:02:52.223Z,102844.28
2019-05-14T00:05:21.823Z,102846.98
2019-05-14T00:07:52.110Z,102841.73
2019-05-14T00:10:21.953Z,102841.50
2019-05-14T00:12:51.423Z,102839.28
2019-05-14T00:15:21.716Z,102841.22
2019-05-14T00:17:52.240Z,102841.78
2019-05-14T00:20:22.557Z,102852.22
2019-05-14T00:22:52.294Z,102851.73
2019-05-14T00:25:22.109Z,102853.15
2019-05-14T00:27:52.028Z,102850.48
2019-05-14T00:30:22.063Z,102850.67
2019-05-14T00:32:52.177Z,102850.55
2019-05-14T00:35:21.681Z,102847.39
2019-05-14T00:37:52.063Z,102848.78
2019-05-14T00:40:22.141Z,102840.34
2019-05-14T00:42:53.265Z,102835.48
2019-05-14T00:45:22.954Z,102835.42
2019-05-14T00:47:52.678Z,102836.58
2019-05-14T00:50:22.238Z,102832.24
2019-05-14T00:52:51.870Z,102834.34
2019-05-14T00:55:22.384Z,102827.52
2019-05-14T00:57:52.312Z,102830.06
2019-05-14T01:00:22.175Z,102826.80
2019-05-14T01:02:51.968Z,102825.53
2019-05-14T01:05:21.729Z,102826.32
2019-05-14T01:07:51.555Z,102832.98
2019-05-14T01:10:22.117Z,102832.55
2019-05-14T01:12:52.197Z,102825.70
2019-05-14T01:15:21.900Z,102825.88
2019-05-14T01:17:51.724Z,102829.25
2019-05-14T01:20:21.450Z,102828.62
2019-05-14T01:22:51.666Z,102834.42
2019-05-14T01:25:23.635Z,102834.19
2019-05-14T01:27:52.426Z,102834.52
2019-05-14T01:30:22.168Z,102836.47
2019-05-14T01:32:51.650Z,102842.48
2019-05-14T01:35:22.191Z,102841.64
2019-05-14T01:37:52.329Z,102843.73
2019-05-14T01:40:22.022Z,102835.36
2019-05-14T01:42:52.232Z,102837.51
2019-05-14T01:45:27.980Z,102837.33
2019-05-14T01:47:53.049Z,102837.22
2019-05-14T01:50:22.595Z,102830.73
2019-05-14T01:52:52.202Z,102830.82
2019-05-14T01:55:21.977Z,102836.29
2019-05-14T01:57:51.908Z,102829.87
2019-05-14T02:00:22.190Z,102830.25
2019-05-14T02:02:52.417Z,102833.59
2019-05-14T02:05:22.141Z,102834.84
2019-05-14T02:07:52.593Z,102825.47
2019-05-14T02:10:22.813Z,102829.01
2019-05-14T02:12:52.289Z,102823.16
2019-05-14T02:15:35.264Z,102818.70
2019-05-14T02:17:53.110Z,102820.68
2019-05-14T02:20:22.678Z,102815.05
2019-05-14T02:22:52.530Z,102812.72
2019-05-14T02:25:22.052Z,102813.40
2019-05-14T02:27:51.948Z,102812.42
2019-05-14T02:30:31.702Z,102802.98
2019-05-14T02:32:52.951Z,102801.89
2019-05-14T02:35:22.505Z,102801.70
2019-05-14T02:37:52.013Z,102804.68
2019-05-14T02:40:21.550Z,102801.31
2019-05-14T02:42:51.129Z,102805.58
2019-05-14T02:45:20.825Z,102798.24
2019-05-14T02:47:50.670Z,102797.16
2019-05-14T02:50:20.517Z,102805.48
2019-05-14T02:52:50.051Z,102797.03
2019-05-14T02:55:19.695Z,102804.20
2019-05-14T02:57:50.052Z,102801.39
2019-05-14T03:00:20.137Z,102800.02
2019-05-14T03:02:49.744Z,102802.36
2019-05-14T03:05:19.501Z,102799.95
2019-05-14T03:07:50.167Z,102800.56
2019-05-14T03:10:20.207Z,102796.42
2019-05-14T03:12:50.376Z,102799.26
2019-05-14T03:15:20.393Z,102797.86
2019-05-14T03:17:49.948Z,102798.11
2019-05-14T03:20:19.902Z,102801.36
2019-05-14T03:23:02.720Z,102818.28
2019-05-14T03:25:21.101Z,102809.87
2019-05-14T03:27:50.652Z,102819.78
2019-05-14T03:30:22.737Z,102816.81
2019-05-14T03:32:53.466Z,102816.66
2019-05-14T03:35:29.315Z,102819.59
2019-05-14T03:37:54.434Z,102824.84
2019-05-14T03:40:23.897Z,102824.84
2019-05-14T03:42:53.482Z,102827.39
2019-05-14T03:45:23.041Z,102833.86
2019-05-14T03:47:52.545Z,102835.55
2019-05-14T03:50:22.098Z,102824.03
2019-05-14T03:52:51.562Z,102828.97
2019-05-14T03:55:21.059Z,102822.16
2019-05-14T03:57:50.552Z,102824.58
2019-05-14T04:00:24.695Z,102824.66
2019-05-14T04:02:54.344Z,102821.29
2019-05-14T04:05:24.367Z,102820.11
2019-05-14T04:07:54.284Z,102819.56
2019-05-14T04:10:24.018Z,102817.05
2019-05-14T04:12:54.148Z,102811.90
2019-05-14T04:15:29.652Z,102816.72
2019-05-14T04:17:59.680Z,102811.84
2019-05-14T04:20:32.376Z,102810.00
2019-05-14T04:23:03.673Z,102811.28
2019-05-14T04:25:34.536Z,102815.61
2019-05-14T04:28:09.642Z,102818.05
2019-05-14T04:30:40.234Z,102814.81
2019-05-14T04:33:10.745Z,102822.76
2019-05-14T04:35:41.064Z,102820.98
2019-05-14T04:38:10.668Z,102815.83
2019-05-14T04:40:40.174Z,102824.45
2019-05-14T04:43:10.288Z,102824.11
2019-05-14T04:45:39.889Z,102831.31
2019-05-14T04:48:27.287Z,102831.47
2019-05-14T04:50:40.742Z,102827.70
2019-05-14T04:53:11.261Z,102836.34
2019-05-14T04:55:40.754Z,102835.23
2019-05-14T04:58:10.362Z,102828.69
2019-05-14T05:00:39.959Z,102831.52
2019-05-14T05:03:12.642Z,102823.00
2019-05-14T05:05:40.721Z,102818.62
2019-05-14T05:08:14.028Z,102820.25
2019-05-14T05:10:41.558Z,102813.23
2019-05-14T05:13:11.056Z,102809.84
2019-05-14T05:15:40.540Z,102819.41
2019-05-14T05:18:10.115Z,102828.42
2019-05-14T05:20:39.603Z,102831.61
2019-05-14T05:23:09.093Z,102831.40
2019-05-14T05:25:38.634Z,102827.04
2019-05-14T05:28:08.826Z,102817.29
2019-05-14T05:30:38.651Z,102818.51
2019-05-14T05:33:09.083Z,102817.80
2019-05-14T05:35:42.239Z,102809.52
2019-05-14T05:38:09.913Z,102807.08
2019-05-14T05:40:39.453Z,102811.07
2019-05-14T05:43:09.086Z,102811.07
2019-05-14T05:45:38.630Z,102813.52
2019-05-14T05:48:08.358Z,102804.72
2019-05-14T05:50:38.937Z,102797.91
2019-05-14T05:53:08.997Z,102797.54
2019-05-14T05:55:39.418Z,102801.28
2019-05-14T05:58:09.000Z,102802.27
2019-05-14T06:00:42.468Z,102799.87
2019-05-14T06:03:12.027Z,102792.73
2019-05-14T06:05:41.674Z,102788.84
2019-05-14T06:08:11.231Z,102793.55
2019-05-14T06:10:40.742Z,102784.44
2019-05-14T06:13:13.664Z,102779.69
2019-05-14T06:15:48.282Z,102773.97
2019-05-14T06:18:18.037Z,102778.05
2019-05-14T06:20:43.933Z,102776.33
2019-05-14T06:23:13.470Z,102772.75
2019-05-14T06:25:43.050Z,102774.55
2019-05-14T06:28:12.521Z,102777.55
2019-05-14T06:30:42.462Z,102770.25
2019-05-14T06:33:11.934Z,102759.45
2019-05-14T06:35:41.500Z,102762.02
2019-05-14T06:38:11.041Z,102768.83
2019-05-14T06:40:40.534Z,102765.06
2019-05-14T06:43:10.036Z,102766.33
2019-05-14T06:45:39.547Z,102764.70
2019-05-14T06:48:09.082Z,102764.59
2019-05-14T06:50:39.321Z,102767.96
2019-05-14T06:53:08.931Z,102772.13
2019-05-14T06:55:39.281Z,102769.37
2019-05-14T06:58:09.288Z,102767.20
2019-05-14T07:00:39.548Z,102766.33
2019-05-14T07:03:09.216Z,102767.31
2019-05-14T07:05:39.112Z,102752.11
2019-05-14T07:08:09.109Z,102749.16
2019-05-14T07:10:39.475Z,102755.16
2019-05-14T07:13:09.173Z,102750.91
2019-05-14T07:15:38.862Z,102740.87
2019-05-14T07:18:08.726Z,102735.42
2019-05-14T07:20:39.271Z,102737.53
2019-05-14T07:23:09.039Z,102735.17
2019-05-14T07:25:39.301Z,102729.66
2019-05-14T07:28:09.080Z,102728.86
2019-05-14T07:30:39.593Z,102735.40
2019-05-14T07:33:09.617Z,102728.61
2019-05-14T07:35:39.126Z,102730.77
2019-05-14T07:38:09.115Z,102728.53
2019-05-14T07:40:39.125Z,102722.79
2019-05-14T07:43:09.162Z,102719.31
2019-05-14T07:45:38.776Z,102715.82
2019-05-14T07:48:09.368Z,102719.78
2019-05-14T07:50:39.827Z,102719.39
2019-05-14T07:53:09.484Z,102711.42
2019-05-14T07:55:39.047Z,102716.77
2019-05-14T07:58:08.560Z,102706.70
2019-05-14T08:00:40.181Z,102709.14
2019-05-14T08:03:09.459Z,102701.06
2019-05-14T08:05:39.191Z,102709.93
2019-05-14T08:08:08.787Z,102712.36
2019-05-14T08:10:39.205Z,102702.72
2019-05-14T08:13:09.010Z,102698.62
2019-05-14T08:15:38.814Z,102700.70
2019-05-14T08:18:08.324Z,102694.11
2019-05-14T08:20:38.144Z,102693.71
2019-05-14T08:23:08.943Z,102687.80
2019-05-14T08:25:39.135Z,102683.75
2019-05-14T08:28:08.643Z,102677.27
2019-05-14T08:30:38.963Z,102676.95
2019-05-14T08:33:09.013Z,102680.83
2019-05-14T08:35:39.504Z,102686.23
2019-05-14T08:38:12.056Z,102674.76
2019-05-14T08:40:40.410Z,102681.14
2019-05-14T08:43:09.891Z,102679.24
2019-05-14T08:45:39.530Z,102679.89
2019-05-14T08:48:09.297Z,102678.08
2019-05-14T08:50:38.983Z,102665.47
2019-05-14T08:53:09.192Z,102671.20
2019-05-14T08:55:38.712Z,102667.60
2019-05-14T08:58:13.615Z,102672.14
2019-05-14T09:00:39.526Z,102668.59
2019-05-14T09:03:09.074Z,102667.63
2019-05-14T09:05:38.790Z,102664.49
2019-05-14T09:08:08.961Z,102665.31
2019-05-14T09:10:40.222Z,102661.91
2019-05-14T09:13:09.782Z,102662.84
2019-05-14T09:15:39.323Z,102662.40
2019-05-14T09:18:11.855Z,102662.84
2019-05-14T09:20:40.047Z,102653.89
2019-05-14T09:23:09.583Z,102654.80
2019-05-14T09:25:47.172Z,102650.52
2019-05-14T09:28:10.472Z,102654.02
2019-05-14T09:30:39.940Z,102646.09
2019-05-14T09:33:09.504Z,102636.57
2019-05-14T09:35:38.972Z,102627.08
2019-05-14T09:38:08.811Z,102615.52
2019-05-14T09:40:39.619Z,102620.49
2019-05-14T09:43:09.464Z,102606.08
2019-05-14T09:45:39.287Z,102599.95
2019-05-14T09:48:08.966Z,102605.98
2019-05-14T09:50:38.623Z,102604.24
2019-05-14T09:53:09.686Z,102603.59
2019-05-14T09:55:39.352Z,102600.05
2019-05-14T09:58:08.830Z,102601.14
2019-05-14T10:00:39.049Z,102598.85
2019-05-14T10:03:09.858Z,102597.75
2019-05-14T10:05:39.513Z,102593.86
2019-05-14T10:08:09.169Z,102591.66
2019-05-14T10:10:39.912Z,102589.60
2019-05-14T10:13:09.956Z,102584.99
2019-05-14T10:15:39.547Z,102591.53
2019-05-14T10:18:11.865Z,102584.08
2019-05-14T10:20:45.494Z,102593.07
2019-05-14T10:23:11.557Z,102582.49
2019-05-14T10:25:42.501Z,102581.08
2019-05-14T10:28:12.113Z,102594.11
2019-05-14T10:30:41.687Z,102583.36
2019-05-14T10:33:14.991Z,102588.16
2019-05-14T10:35:42.678Z,102583.81
2019-05-14T10:38:12.161Z,102587.44
2019-05-14T10:40:41.726Z,102579.97
2019-05-14T10:43:11.294Z,102583.08
2019-05-14T10:45:40.921Z,102583.59
2019-05-14T10:48:10.416Z,102577.45
2019-05-14T10:50:55.810Z,102580.65
2019-05-14T10:53:11.126Z,102579.14
2019-05-14T10:55:40.747Z,102578.53
2019-05-14T10:58:10.353Z,102567.76
2019-05-14T11:00:41.930Z,102567.05
2019-05-14T11:03:11.177Z,102563.75
2019-05-14T11:05:41.498Z,102553.84
2019-05-14T11:08:12.065Z,102550.56
2019-05-14T11:10:42.768Z,102539.78
2019-05-14T11:13:12.352Z,102530.54
2019-05-14T11:15:41.920Z,102528.02
2019-05-14T11:18:11.462Z,102526.26
2019-05-14T11:20:42.261Z,102521.36
2019-05-14T11:23:11.998Z,102514.34
2019-05-14T11:25:41.577Z,102506.78
2019-05-14T11:28:11.049Z,102499.66
2019-05-14T11:30:40.640Z,102507.50
2019-05-14T11:33:10.136Z,102503.62
2019-05-14T11:35:39.682Z,102505.33
2019-05-14T11:38:28.071Z,102496.22
2019-05-14T11:40:40.383Z,102497.57
2019-05-14T11:43:09.882Z,102491.45
2019-05-14T11:45:39.664Z,102494.18
2019-05-14T11:48:09.260Z,102487.22
2019-05-14T11:50:38.766Z,102471.64
2019-05-14T11:53:08.545Z,102470.50
2019-05-14T11:55:38.942Z,102470.23
2019-05-14T11:58:08.842Z,102478.70
2019-05-14T12:00:38.892Z,102476.92
2019-05-14T12:03:09.168Z,102469.26
2019-05-14T12:05:39.032Z,102465.33
2019-05-14T12:08:08.726Z,102466.36
2019-05-14T12:10:38.670Z,102460.75
2019-05-14T12:13:08.676Z,102460.13
2019-05-14T12:15:38.809Z,102449.31
2019-05-14T12:18:10.394Z,102443.33
2019-05-14T12:20:39.922Z,102448.17
2019-05-14T12:23:09.399Z,102441.62
2019-05-14T12:25:38.915Z,102435.52
2019-05-14T12:28:13.627Z,102432.43
2019-05-14T12:30:39.787Z,102424.94
2019-05-14T12:33:09.267Z,102417.30
2019-05-14T12:35:40.302Z,102417.97
2019-05-14T12:38:10.140Z,102408.78
2019-05-14T12:40:39.650Z,102403.25
2019-05-14T12:43:09.715Z,102408.12
2019-05-14T12:45:39.592Z,102388.83
2019-05-14T12:48:09.479Z,102395.02
2019-05-14T12:50:39.470Z,102392.30
2019-05-14T12:53:09.062Z,102388.48
2019-05-14T12:55:40.313Z,102395.05
2019-05-14T12:58:09.884Z,102391.25
2019-05-14T13:00:39.648Z,102386.00
2019-05-14T13:03:09.338Z,102396.33
2019-05-14T13:05:38.876Z,102388.15
2019-05-14T13:08:11.507Z,102388.64
2019-05-14T13:10:39.786Z,102381.80
2019-05-14T13:13:09.272Z,102380.24
2019-05-14T13:15:39.437Z,102379.53
2019-05-14T13:18:08.999Z,102377.43
2019-05-14T13:20:39.050Z,102384.90
2019-05-14T13:23:10.079Z,102371.12
2019-05-14T13:25:39.781Z,102365.82
2019-05-14T13:28:09.368Z,102362.22
2019-05-14T13:30:38.869Z,102361.08
2019-05-14T13:33:08.971Z,102353.05
2019-05-14T13:35:39.096Z,102357.72
2019-05-14T13:38:14.135Z,102344.09
2019-05-14T13:40:40.074Z,102350.15
2019-05-14T13:43:09.965Z,102347.41
2019-05-14T13:45:39.619Z,102344.38
2019-05-14T13:48:09.083Z,102341.74
2019-05-14T13:50:40.011Z,102339.53
2019-05-14T13:53:12.841Z,102334.32
2019-05-14T13:55:46.142Z,102331.34
2019-05-14T13:58:12.436Z,102326.36
2019-05-14T14:00:42.009Z,102324.30
2019-05-14T14:03:11.552Z,102324.81
2019-05-14T14:05:41.077Z,102325.11
2019-05-14T14:08:10.661Z,102329.17
2019-05-14T14:10:45.435Z,102317.84
2019-05-14T14:13:11.683Z,102319.33
2019-05-14T14:15:41.245Z,102319.74
2019-05-14T14:18:10.746Z,102306.05
2019-05-14T14:20:40.242Z,102306.52
2019-05-14T14:23:21.984Z,102306.31
2019-05-14T14:25:41.024Z,102298.70
2019-05-14T14:28:10.629Z,102291.86
2019-05-14T14:30:40.184Z,102299.83
2019-05-14T14:33:09.730Z,102285.80
2019-05-14T14:35:39.316Z,102292.41
2019-05-14T14:38:08.978Z,102280.67
2019-05-14T14:40:39.575Z,102285.73
2019-05-14T14:43:09.344Z,102275.79
2019-05-14T14:45:44.782Z,102281.23
2019-05-14T14:48:12.244Z,102271.77
2019-05-14T14:50:41.376Z,102275.01
2019-05-14T14:53:10.925Z,102277.17
2019-05-14T14:55:40.562Z,102271.06
2019-05-14T14:58:11.482Z,102275.70
2019-05-14T15:00:41.420Z,102274.56
2019-05-14T15:03:11.003Z,102270.86
2019-05-14T15:05:40.500Z,102268.70
2019-05-14T15:08:10.424Z,102262.95
2019-05-14T15:10:40.047Z,102251.67
2019-05-14T15:13:09.527Z,102249.80
2019-05-14T15:15:39.439Z,102251.32
2019-05-14T15:18:10.114Z,102246.27
2019-05-14T15:20:40.216Z,102241.62
2019-05-14T15:23:10.112Z,102246.03
2019-05-14T15:25:39.630Z,102249.34
2019-05-14T15:28:09.536Z,102241.80
2019-05-14T15:30:39.721Z,102239.61
2019-05-14T15:33:09.424Z,102242.28
2019-05-14T15:35:39.025Z,102240.72
2019-05-14T15:38:11.389Z,102233.66
2019-05-14T15:40:40.216Z,102226.70
2019-05-14T15:43:10.111Z,102231.44
2019-05-14T15:45:39.768Z,102225.09
2019-05-14T15:48:09.279Z,102228.89
2019-05-14T15:50:39.089Z,102218.35
2019-05-14T15:53:11.274Z,102216.64
2019-05-14T15:55:39.864Z,102219.95
2019-05-14T15:58:09.341Z,102214.48
2019-05-14T16:00:38.976Z,102213.78
2019-05-14T16:03:08.985Z,102198.61
2019-05-14T16:05:39.392Z,102203.21
2019-05-14T16:08:09.259Z,102197.50
2019-05-14T16:10:39.855Z,102192.69
2019-05-14T16:13:09.667Z,102193.58
2019-05-14T16:15:39.177Z,102193.50
2019-05-14T16:18:18.371Z,102196.98
2019-05-14T16:20:39.993Z,102184.12
2019-05-14T16:23:10.868Z,102188.73
2019-05-14T16:25:40.789Z,102196.18
2019-05-14T16:28:10.361Z,102201.56
2019-05-14T16:30:39.940Z,102207.31
2019-05-14T16:33:09.537Z,102201.06
2019-05-14T16:35:39.383Z,102196.71
2019-05-14T16:38:08.961Z,102196.52
2019-05-14T16:40:39.592Z,102194.42
2019-05-14T16:43:09.188Z,102196.58
2019-05-14T16:45:39.558Z,102194.58
2019-05-14T16:48:10.804Z,102200.78
2019-05-14T16:50:40.634Z,102202.33
2019-05-14T16:53:11.634Z,102204.64
2019-05-14T16:55:41.352Z,102203.50
2019-05-14T16:58:10.835Z,102199.22
2019-05-14T17:00:40.332Z,102205.66
2019-05-14T17:03:09.935Z,102204.68
2019-05-14T17:05:39.409Z,102205.79
2019-05-14T17:08:10.057Z,102202.11
2019-05-14T17:10:39.566Z,102201.67
2019-05-14T17:13:09.230Z,102202.44
2019-05-14T17:15:39.372Z,102198.56
2019-05-14T17:18:09.083Z,102210.38
2019-05-14T17:20:39.459Z,102207.54
2019-05-14T17:23:09.207Z,102213.64
2019-05-14T17:25:39.154Z,102199.72
2019-05-14T17:28:08.746Z,102208.66
2019-05-14T17:30:38.687Z,102209.39
2019-05-14T17:33:09.663Z,102209.83
2019-05-14T17:35:39.304Z,102219.17
2019-05-14T17:38:09.337Z,102213.38
2019-05-14T17:40:39.630Z,102210.89
2019-05-14T17:43:09.390Z,102214.34
2019-05-14T17:45:39.281Z,102216.67
2019-05-14T17:48:08.849Z,102211.92
2019-05-14T17:50:38.607Z,102218.05
2019-05-14T17:53:09.733Z,102211.01
2019-05-14T17:55:46.564Z,102213.27
2019-05-14T17:58:13.115Z,102212.33
2019-05-14T18:00:42.074Z,102207.88
2019-05-14T18:03:11.578Z,102203.37
2019-05-14T18:05:41.158Z,102203.34
2019-05-14T18:08:10.682Z,102205.73
2019-05-14T18:10:40.252Z,102202.48
2019-05-14T18:13:09.853Z,102199.03
2019-05-14T18:15:39.610Z,102198.24
2019-05-14T18:18:09.307Z,102200.05
2019-05-14T18:20:39.597Z,102202.03
2019-05-14T18:23:11.689Z,102196.73
2019-05-14T18:25:40.494Z,102195.95
2019-05-14T18:28:10.059Z,102194.66
2019-05-14T18:30:39.624Z,102195.66
2019-05-14T18:33:09.131Z,102191.55
2019-05-14T18:35:44.474Z,102198.38
2019-05-14T18:38:10.048Z,102195.30
2019-05-14T18:40:39.831Z,102186.58
2019-05-14T18:43:09.363Z,102184.31
2019-05-14T18:45:39.045Z,102192.31
2019-05-14T18:48:08.636Z,102189.16
2019-05-14T18:50:38.327Z,102191.84
2019-05-14T18:53:09.051Z,102199.52
2019-05-14T18:55:39.143Z,102204.08
2019-05-14T18:58:08.753Z,102200.11
2019-05-14T19:00:38.813Z,102200.80
2019-05-14T19:03:08.594Z,102199.66
2019-05-14T19:05:38.363Z,102201.24
2019-05-14T19:08:07.951Z,102207.38
2019-05-14T19:10:39.169Z,102208.59
2019-05-14T19:13:08.913Z,102203.27
2019-05-14T19:15:38.862Z,102202.73
2019-05-14T19:18:09.130Z,102200.86
2019-05-14T19:20:39.207Z,102203.44
2019-05-14T19:23:08.993Z,102204.22
2019-05-14T19:25:39.016Z,102202.81
2019-05-14T19:28:08.990Z,102203.34
2019-05-14T19:30:38.572Z,102200.95
2019-05-14T19:33:08.559Z,102202.89
2019-05-14T19:35:39.462Z,102204.22
2019-05-14T19:38:09.120Z,102196.27
2019-05-14T19:40:39.312Z,102200.48
2019-05-14T19:43:09.517Z,102194.12
2019-05-14T19:45:39.198Z,102191.61
2019-05-14T19:48:08.777Z,102199.91
2019-05-14T19:50:38.867Z,102199.16
2019-05-14T19:53:10.126Z,102199.80
2019-05-14T19:55:39.695Z,102202.59
2019-05-14T19:58:09.191Z,102201.37
2019-05-14T20:00:39.283Z,102205.55
2019-05-14T20:03:08.966Z,102206.93
2019-05-14T20:05:39.443Z,102205.09
2019-05-14T20:08:09.325Z,102203.37
2019-05-14T20:10:39.064Z,102208.05
2019-05-14T20:13:08.688Z,102206.73
2019-05-14T20:15:38.928Z,102207.76
2019-05-14T20:18:08.996Z,102203.91
2019-05-14T20:20:39.336Z,102207.80
2019-05-14T20:23:08.915Z,102206.16
2019-05-14T20:25:38.876Z,102206.81
2019-05-14T20:28:08.518Z,102200.91
2019-05-14T20:30:38.744Z,102198.91
2019-05-14T20:33:08.688Z,102203.43
2019-05-14T20:35:38.346Z,102195.86
2019-05-14T20:38:09.077Z,102191.63
2019-05-14T20:40:38.730Z,102196.95
2019-05-14T20:43:10.350Z,102198.27
2019-05-14T20:45:39.501Z,102189.95
2019-05-14T20:48:09.033Z,102193.29
2019-05-14T20:50:38.621Z,102186.55
2019-05-14T20:53:08.522Z,102187.80
2019-05-14T20:55:38.914Z,102186.27
2019-05-14T20:58:08.521Z,102184.76
2019-05-14T21:00:41.261Z,102178.73
2019-05-14T21:03:09.528Z,102184.39
2019-05-14T21:05:42.214Z,102188.73
2019-05-14T21:08:13.439Z,102185.55
2019-05-14T21:13:33.880Z,102183.20
2019-05-14T21:16:22.723Z,102187.08
2019-05-14T21:19:11.575Z,102191.12
2019-05-14T21:22:01.158Z,102186.92
2019-05-14T21:24:53.166Z,102189.06
2019-05-14T21:27:48.371Z,102187.62
2019-05-14T21:30:35.174Z,102186.62
2019-05-14T21:33:22.681Z,102183.78
2019-05-14T21:36:12.348Z,102187.67
2019-05-14T21:39:02.128Z,102185.07
2019-05-14T21:41:31.712Z,102185.51
2019-05-14T21:44:20.570Z,102184.05
2019-05-14T21:47:09.386Z,102178.81
2019-05-14T21:49:58.242Z,102183.24
2019-05-14T21:52:42.265Z,102180.06
2019-05-14T21:55:30.767Z,102171.63
2019-05-14T21:58:19.885Z,102181.42
2019-05-14T22:01:10.348Z,102181.39
2019-05-14T22:03:59.402Z,102182.12
2019-05-14T22:06:49.014Z,102176.84
2019-05-14T22:09:41.131Z,102172.64
2019-05-14T22:12:29.391Z,102169.98
2019-05-14T22:15:18.606Z,102164.50
2019-05-14T22:18:16.947Z,102162.31
2019-05-14T22:20:59.607Z,102164.02
2019-05-14T22:23:48.432Z,102163.96
2019-05-14T22:26:38.823Z,102164.16
2019-05-14T22:29:28.635Z,102162.75
2019-05-14T22:32:19.028Z,102160.44
2019-05-14T22:35:09.163Z,102152.44
2019-05-14T22:37:59.656Z,102158.29
2019-05-14T22:40:48.776Z,102160.74
2019-05-14T22:43:38.349Z,102158.14
2019-05-14T22:46:28.214Z,102151.47
2019-05-14T22:49:19.144Z,102152.03
2019-05-14T22:52:00.410Z,102147.45
2019-05-14T22:54:49.253Z,102150.20
2019-05-14T22:57:39.354Z,102161.56
2019-05-14T23:00:28.996Z,102153.84
2019-05-14T23:03:21.227Z,102152.04
2019-05-14T23:06:09.892Z,102145.04
2019-05-14T23:08:58.782Z,102146.16
2019-05-14T23:11:47.991Z,102148.98
2019-05-14T23:14:39.081Z,102148.19
2019-05-14T23:17:28.740Z,102146.80
2019-05-14T23:20:19.605Z,102140.27
2019-05-14T23:23:09.296Z,102138.95
2019-05-14T23:25:58.986Z,102142.81
2019-05-14T23:28:49.382Z,102134.25
2019-05-14T23:31:38.702Z,102139.89
2019-05-14T23:34:28.933Z,102137.77
2019-05-14T23:40:33.066Z,102128.66
2019-05-14T23:43:21.893Z,102132.31
2019-05-14T23:46:10.802Z,102125.84
2019-05-14T23:48:59.641Z,102124.45
2019-05-14T23:51:48.482Z,102128.73
2019-05-14T23:54:38.554Z,102122.27
2019-05-14T23:57:28.810Z,102131.19
